sensor_id;sensor_type;location;lat;lon;timestamp;P1;durP1;ratioP1;P2;durP2;ratioP2
20531;SDS011;10424;52.102;8.084;2022-12-18T00:02:16;37.70;;;15.17;;
20531;SDS011;10424;52.102;8.084;2022-12-18T00:04:43;34.67;;;14.63;;
20531;SDS011;10424;52.102;8.084;2022-12-18T00:07:10;37.60;;;15.37;;
20531;SDS011;10424;52.102;8.084;2022-12-18T00:09:37;35.23;;;15.20;;
20531;SDS011;10424;52.102;8.084;2022-12-18T00:12:05;33.77;;;13.57;;
20531;SDS011;10424;52.102;8.084;2022-12-18T00:14:32;31.47;;;13.50;;
20531;SDS011;10424;52.102;8.084;2022-12-18T00:17:00;32.57;;;12.97;;
20531;SDS011;10424;52.102;8.084;2022-12-18T00:19:29;34.67;;;14.00;;
20531;SDS011;10424;52.102;8.084;2022-12-18T00:21:56;31.50;;;13.07;;
20531;SDS011;10424;52.102;8.084;2022-12-18T00:24:24;30.20;;;13.20;;
20531;SDS011;10424;52.102;8.084;2022-12-18T00:26:51;29.83;;;11.53;;
20531;SDS011;10424;52.102;8.084;2022-12-18T00:29:18;29.97;;;12.57;;
20531;SDS011;10424;52.102;8.084;2022-12-18T00:31:46;27.73;;;11.77;;
20531;SDS011;10424;52.102;8.084;2022-12-18T00:34:13;31.13;;;12.10;;
20531;SDS011;10424;52.102;8.084;2022-12-18T00:36:42;24.90;;;11.57;;
20531;SDS011;10424;52.102;8.084;2022-12-18T00:39:09;31.47;;;12.70;;
20531;SDS011;10424;52.102;8.084;2022-12-18T00:41:37;25.87;;;11.10;;
20531;SDS011;10424;52.102;8.084;2022-12-18T00:44:22;28.50;;;10.87;;
20531;SDS011;10424;52.102;8.084;2022-12-18T00:46:49;25.27;;;10.80;;
20531;SDS011;10424;52.102;8.084;2022-12-18T00:49:17;28.30;;;12.77;;
20531;SDS011;10424;52.102;8.084;2022-12-18T00:51:46;25.47;;;10.20;;
20531;SDS011;10424;52.102;8.084;2022-12-18T00:54:14;25.63;;;11.17;;
20531;SDS011;10424;52.102;8.084;2022-12-18T00:56:41;18.40;;;8.67;;
20531;SDS011;10424;52.102;8.084;2022-12-18T00:59:08;27.17;;;11.60;;
20531;SDS011;10424;52.102;8.084;2022-12-18T01:01:35;24.13;;;10.83;;
20531;SDS011;10424;52.102;8.084;2022-12-18T01:04:03;20.50;;;9.97;;
20531;SDS011;10424;52.102;8.084;2022-12-18T01:06:30;25.33;;;10.93;;
20531;SDS011;10424;52.102;8.084;2022-12-18T01:08:59;23.07;;;9.20;;
20531;SDS011;10424;52.102;8.084;2022-12-18T01:11:26;22.77;;;10.23;;
20531;SDS011;10424;52.102;8.084;2022-12-18T01:13:53;22.90;;;10.27;;
20531;SDS011;10424;52.102;8.084;2022-12-18T01:16:21;22.33;;;11.73;;
20531;SDS011;10424;52.102;8.084;2022-12-18T01:18:50;22.67;;;10.10;;
20531;SDS011;10424;52.102;8.084;2022-12-18T01:21:18;22.90;;;10.00;;
20531;SDS011;10424;52.102;8.084;2022-12-18T01:23:45;22.13;;;9.77;;
20531;SDS011;10424;52.102;8.084;2022-12-18T01:26:14;20.30;;;9.30;;
20531;SDS011;10424;52.102;8.084;2022-12-18T01:28:42;25.70;;;10.27;;
20531;SDS011;10424;52.102;8.084;2022-12-18T01:31:13;22.50;;;10.73;;
20531;SDS011;10424;52.102;8.084;2022-12-18T01:33:42;21.70;;;9.60;;
20531;SDS011;10424;52.102;8.084;2022-12-18T01:36:14;19.67;;;8.57;;
20531;SDS011;10424;52.102;8.084;2022-12-18T01:38:41;23.80;;;10.30;;
20531;SDS011;10424;52.102;8.084;2022-12-18T01:41:09;17.33;;;8.37;;
20531;SDS011;10424;52.102;8.084;2022-12-18T01:43:51;22.20;;;9.73;;
20531;SDS011;10424;52.102;8.084;2022-12-18T01:46:19;20.00;;;8.67;;
20531;SDS011;10424;52.102;8.084;2022-12-18T01:48:51;22.60;;;9.10;;
20531;SDS011;10424;52.102;8.084;2022-12-18T01:51:19;16.87;;;8.37;;
20531;SDS011;10424;52.102;8.084;2022-12-18T01:53:47;22.27;;;8.97;;
20531;SDS011;10424;52.102;8.084;2022-12-18T01:56:15;18.70;;;8.63;;
20531;SDS011;10424;52.102;8.084;2022-12-18T01:58:48;16.83;;;8.70;;
20531;SDS011;10424;52.102;8.084;2022-12-18T02:01:18;19.67;;;8.50;;
20531;SDS011;10424;52.102;8.084;2022-12-18T02:03:46;22.73;;;9.57;;
20531;SDS011;10424;52.102;8.084;2022-12-18T02:06:15;20.63;;;8.90;;
20531;SDS011;10424;52.102;8.084;2022-12-18T02:11:28;21.50;;;8.60;;
20531;SDS011;10424;52.102;8.084;2022-12-18T02:14:00;22.90;;;9.17;;
20531;SDS011;10424;52.102;8.084;2022-12-18T02:16:33;16.23;;;7.80;;
20531;SDS011;10424;52.102;8.084;2022-12-18T02:19:03;20.43;;;8.57;;
20531;SDS011;10424;52.102;8.084;2022-12-18T02:21:34;15.73;;;8.13;;
20531;SDS011;10424;52.102;8.084;2022-12-18T02:24:08;15.73;;;8.27;;
20531;SDS011;10424;52.102;8.084;2022-12-18T02:26:42;17.30;;;8.13;;
20531;SDS011;10424;52.102;8.084;2022-12-18T02:29:15;17.53;;;7.60;;
20531;SDS011;10424;52.102;8.084;2022-12-18T02:31:44;16.00;;;7.13;;
20531;SDS011;10424;52.102;8.084;2022-12-18T02:34:12;14.20;;;7.03;;
20531;SDS011;10424;52.102;8.084;2022-12-18T02:36:40;20.33;;;8.27;;
20531;SDS011;10424;52.102;8.084;2022-12-18T02:39:09;16.70;;;7.33;;
20531;SDS011;10424;52.102;8.084;2022-12-18T02:41:37;16.67;;;7.43;;
20531;SDS011;10424;52.102;8.084;2022-12-18T02:44:08;18.07;;;6.90;;
20531;SDS011;10424;52.102;8.084;2022-12-18T02:46:36;17.67;;;8.13;;
20531;SDS011;10424;52.102;8.084;2022-12-18T02:49:06;20.97;;;6.93;;
20531;SDS011;10424;52.102;8.084;2022-12-18T02:51:37;16.17;;;7.30;;
20531;SDS011;10424;52.102;8.084;2022-12-18T02:54:08;16.47;;;7.27;;
20531;SDS011;10424;52.102;8.084;2022-12-18T02:56:38;14.70;;;7.60;;
20531;SDS011;10424;52.102;8.084;2022-12-18T02:59:09;14.97;;;7.20;;
20531;SDS011;10424;52.102;8.084;2022-12-18T03:01:40;15.30;;;7.43;;
20531;SDS011;10424;52.102;8.084;2022-12-18T03:04:11;14.93;;;6.83;;
20531;SDS011;10424;52.102;8.084;2022-12-18T03:06:39;15.60;;;6.70;;
20531;SDS011;10424;52.102;8.084;2022-12-18T03:09:09;14.07;;;6.37;;
20531;SDS011;10424;52.102;8.084;2022-12-18T03:11:38;13.27;;;6.93;;
20531;SDS011;10424;52.102;8.084;2022-12-18T03:14:29;15.90;;;6.90;;
20531;SDS011;10424;52.102;8.084;2022-12-18T03:16:58;19.03;;;6.80;;
20531;SDS011;10424;52.102;8.084;2022-12-18T03:19:27;13.30;;;6.50;;
20531;SDS011;10424;52.102;8.084;2022-12-18T03:21:55;15.13;;;6.57;;
20531;SDS011;10424;52.102;8.084;2022-12-18T03:24:24;15.00;;;6.63;;
20531;SDS011;10424;52.102;8.084;2022-12-18T03:26:52;20.37;;;6.27;;
20531;SDS011;10424;52.102;8.084;2022-12-18T03:29:21;14.87;;;5.90;;
20531;SDS011;10424;52.102;8.084;2022-12-18T03:31:51;12.70;;;6.03;;
20531;SDS011;10424;52.102;8.084;2022-12-18T03:34:21;15.53;;;6.67;;
20531;SDS011;10424;52.102;8.084;2022-12-18T03:36:49;16.50;;;6.40;;
20531;SDS011;10424;52.102;8.084;2022-12-18T03:39:17;14.40;;;6.20;;
20531;SDS011;10424;52.102;8.084;2022-12-18T03:41:44;12.50;;;5.97;;
20531;SDS011;10424;52.102;8.084;2022-12-18T03:44:14;15.47;;;6.60;;
20531;SDS011;10424;52.102;8.084;2022-12-18T03:46:47;14.13;;;5.77;;
20531;SDS011;10424;52.102;8.084;2022-12-18T03:49:22;14.03;;;6.10;;
20531;SDS011;10424;52.102;8.084;2022-12-18T03:51:52;15.37;;;6.33;;
20531;SDS011;10424;52.102;8.084;2022-12-18T03:54:21;13.57;;;6.00;;
20531;SDS011;10424;52.102;8.084;2022-12-18T03:56:52;14.23;;;5.83;;
20531;SDS011;10424;52.102;8.084;2022-12-18T03:59:22;12.33;;;5.07;;
20531;SDS011;10424;52.102;8.084;2022-12-18T04:01:50;12.97;;;6.00;;
20531;SDS011;10424;52.102;8.084;2022-12-18T04:04:19;13.23;;;5.40;;
20531;SDS011;10424;52.102;8.084;2022-12-18T04:06:49;15.43;;;5.07;;
20531;SDS011;10424;52.102;8.084;2022-12-18T04:09:17;11.13;;;5.80;;
20531;SDS011;10424;52.102;8.084;2022-12-18T04:11:45;12.47;;;5.70;;
20531;SDS011;10424;52.102;8.084;2022-12-18T04:14:12;13.90;;;6.20;;
20531;SDS011;10424;52.102;8.084;2022-12-18T04:16:40;10.97;;;5.67;;
20531;SDS011;10424;52.102;8.084;2022-12-18T04:19:07;10.87;;;5.77;;
20531;SDS011;10424;52.102;8.084;2022-12-18T04:21:34;10.60;;;4.93;;
20531;SDS011;10424;52.102;8.084;2022-12-18T04:24:03;10.70;;;5.10;;
20531;SDS011;10424;52.102;8.084;2022-12-18T04:26:31;12.20;;;5.50;;
20531;SDS011;10424;52.102;8.084;2022-12-18T04:28:58;10.53;;;5.63;;
20531;SDS011;10424;52.102;8.084;2022-12-18T04:31:25;9.43;;;5.13;;
20531;SDS011;10424;52.102;8.084;2022-12-18T04:33:53;13.53;;;5.27;;
20531;SDS011;10424;52.102;8.084;2022-12-18T04:36:20;11.57;;;4.77;;
20531;SDS011;10424;52.102;8.084;2022-12-18T04:38:47;11.13;;;5.33;;
20531;SDS011;10424;52.102;8.084;2022-12-18T04:41:16;13.60;;;5.57;;
20531;SDS011;10424;52.102;8.084;2022-12-18T04:43:43;13.27;;;5.17;;
20531;SDS011;10424;52.102;8.084;2022-12-18T04:46:11;11.30;;;5.43;;
20531;SDS011;10424;52.102;8.084;2022-12-18T04:48:38;11.07;;;5.50;;
20531;SDS011;10424;52.102;8.084;2022-12-18T04:51:06;14.00;;;5.20;;
20531;SDS011;10424;52.102;8.084;2022-12-18T04:53:33;10.77;;;5.80;;
20531;SDS011;10424;52.102;8.084;2022-12-18T04:56:04;13.37;;;5.40;;
20531;SDS011;10424;52.102;8.084;2022-12-18T04:58:33;12.93;;;5.90;;
20531;SDS011;10424;52.102;8.084;2022-12-18T05:01:00;14.13;;;5.90;;
20531;SDS011;10424;52.102;8.084;2022-12-18T05:03:28;10.80;;;5.17;;
20531;SDS011;10424;52.102;8.084;2022-12-18T05:05:55;12.43;;;5.47;;
20531;SDS011;10424;52.102;8.084;2022-12-18T05:08:23;12.80;;;5.67;;
20531;SDS011;10424;52.102;8.084;2022-12-18T05:10:57;11.00;;;5.60;;
20531;SDS011;10424;52.102;8.084;2022-12-18T05:13:24;13.53;;;5.30;;
20531;SDS011;10424;52.102;8.084;2022-12-18T05:15:53;13.20;;;5.10;;
20531;SDS011;10424;52.102;8.084;2022-12-18T05:18:21;14.10;;;6.30;;
20531;SDS011;10424;52.102;8.084;2022-12-18T05:20:48;11.17;;;4.93;;
20531;SDS011;10424;52.102;8.084;2022-12-18T05:23:16;13.87;;;5.93;;
20531;SDS011;10424;52.102;8.084;2022-12-18T05:25:46;13.43;;;5.33;;
20531;SDS011;10424;52.102;8.084;2022-12-18T05:28:14;10.20;;;5.03;;
20531;SDS011;10424;52.102;8.084;2022-12-18T05:30:41;14.10;;;6.03;;
20531;SDS011;10424;52.102;8.084;2022-12-18T05:33:10;12.57;;;5.57;;
20531;SDS011;10424;52.102;8.084;2022-12-18T05:35:37;11.23;;;5.00;;
20531;SDS011;10424;52.102;8.084;2022-12-18T05:38:05;13.73;;;5.27;;
20531;SDS011;10424;52.102;8.084;2022-12-18T05:40:32;13.60;;;5.50;;
20531;SDS011;10424;52.102;8.084;2022-12-18T05:42:59;12.67;;;5.53;;
20531;SDS011;10424;52.102;8.084;2022-12-18T05:45:26;14.40;;;6.20;;
20531;SDS011;10424;52.102;8.084;2022-12-18T05:47:54;13.50;;;5.57;;
20531;SDS011;10424;52.102;8.084;2022-12-18T05:50:22;12.00;;;5.23;;
20531;SDS011;10424;52.102;8.084;2022-12-18T05:52:50;12.33;;;5.57;;
20531;SDS011;10424;52.102;8.084;2022-12-18T05:55:17;17.97;;;6.83;;
20531;SDS011;10424;52.102;8.084;2022-12-18T05:57:44;17.20;;;6.00;;
20531;SDS011;10424;52.102;8.084;2022-12-18T06:00:12;13.57;;;5.77;;
20531;SDS011;10424;52.102;8.084;2022-12-18T06:02:39;8.90;;;4.53;;
20531;SDS011;10424;52.102;8.084;2022-12-18T06:05:07;12.53;;;5.53;;
20531;SDS011;10424;52.102;8.084;2022-12-18T06:07:37;14.90;;;5.40;;
20531;SDS011;10424;52.102;8.084;2022-12-18T06:10:04;11.57;;;5.20;;
20531;SDS011;10424;52.102;8.084;2022-12-18T06:12:32;14.10;;;5.27;;
20531;SDS011;10424;52.102;8.084;2022-12-18T06:14:59;13.73;;;5.80;;
20531;SDS011;10424;52.102;8.084;2022-12-18T06:17:27;13.50;;;5.90;;
20531;SDS011;10424;52.102;8.084;2022-12-18T06:19:55;14.23;;;6.27;;
20531;SDS011;10424;52.102;8.084;2022-12-18T06:22:22;15.13;;;5.93;;
20531;SDS011;10424;52.102;8.084;2022-12-18T06:24:51;14.73;;;5.77;;
20531;SDS011;10424;52.102;8.084;2022-12-18T06:27:18;13.40;;;6.23;;
20531;SDS011;10424;52.102;8.084;2022-12-18T06:29:45;13.50;;;6.10;;
20531;SDS011;10424;52.102;8.084;2022-12-18T06:32:13;12.83;;;5.70;;
20531;SDS011;10424;52.102;8.084;2022-12-18T06:34:40;14.43;;;6.03;;
20531;SDS011;10424;52.102;8.084;2022-12-18T06:37:07;13.60;;;6.10;;
20531;SDS011;10424;52.102;8.084;2022-12-18T06:39:35;13.40;;;6.17;;
20531;SDS011;10424;52.102;8.084;2022-12-18T06:42:04;15.17;;;6.47;;
20531;SDS011;10424;52.102;8.084;2022-12-18T06:44:31;15.70;;;7.03;;
20531;SDS011;10424;52.102;8.084;2022-12-18T06:46:58;11.80;;;6.30;;
20531;SDS011;10424;52.102;8.084;2022-12-18T06:49:26;19.97;;;7.43;;
20531;SDS011;10424;52.102;8.084;2022-12-18T06:51:53;16.10;;;7.07;;
20531;SDS011;10424;52.102;8.084;2022-12-18T06:54:20;16.37;;;7.20;;
20531;SDS011;10424;52.102;8.084;2022-12-18T06:56:47;18.67;;;6.67;;
20531;SDS011;10424;52.102;8.084;2022-12-18T06:59:16;15.60;;;6.37;;
20531;SDS011;10424;52.102;8.084;2022-12-18T07:01:44;16.27;;;7.00;;
20531;SDS011;10424;52.102;8.084;2022-12-18T07:04:11;14.67;;;7.47;;
20531;SDS011;10424;52.102;8.084;2022-12-18T07:06:38;18.20;;;7.30;;
20531;SDS011;10424;52.102;8.084;2022-12-18T07:09:05;17.23;;;6.97;;
20531;SDS011;10424;52.102;8.084;2022-12-18T07:11:33;17.67;;;6.97;;
20531;SDS011;10424;52.102;8.084;2022-12-18T07:14:00;15.50;;;7.03;;
20531;SDS011;10424;52.102;8.084;2022-12-18T07:16:29;17.70;;;7.83;;
20531;SDS011;10424;52.102;8.084;2022-12-18T07:18:56;19.73;;;8.57;;
20531;SDS011;10424;52.102;8.084;2022-12-18T07:21:24;16.67;;;7.70;;
20531;SDS011;10424;52.102;8.084;2022-12-18T07:23:51;16.27;;;7.13;;
20531;SDS011;10424;52.102;8.084;2022-12-18T07:26:19;18.73;;;7.80;;
20531;SDS011;10424;52.102;8.084;2022-12-18T07:28:47;19.33;;;7.73;;
20531;SDS011;10424;52.102;8.084;2022-12-18T07:31:15;17.73;;;7.93;;
20531;SDS011;10424;52.102;8.084;2022-12-18T07:33:44;16.30;;;7.70;;
20531;SDS011;10424;52.102;8.084;2022-12-18T07:36:12;19.67;;;7.90;;
20531;SDS011;10424;52.102;8.084;2022-12-18T07:38:40;17.67;;;7.97;;
20531;SDS011;10424;52.102;8.084;2022-12-18T07:41:08;16.03;;;7.37;;
20531;SDS011;10424;52.102;8.084;2022-12-18T07:43:36;18.77;;;7.70;;
20531;SDS011;10424;52.102;8.084;2022-12-18T07:46:04;18.23;;;7.57;;
20531;SDS011;10424;52.102;8.084;2022-12-18T07:48:31;17.97;;;7.43;;
20531;SDS011;10424;52.102;8.084;2022-12-18T07:51:00;19.27;;;8.43;;
20531;SDS011;10424;52.102;8.084;2022-12-18T07:53:27;21.37;;;9.00;;
20531;SDS011;10424;52.102;8.084;2022-12-18T07:55:55;18.47;;;8.20;;
20531;SDS011;10424;52.102;8.084;2022-12-18T07:58:23;20.73;;;8.40;;
20531;SDS011;10424;52.102;8.084;2022-12-18T08:00:50;21.80;;;8.73;;
20531;SDS011;10424;52.102;8.084;2022-12-18T08:03:18;17.80;;;7.97;;
20531;SDS011;10424;52.102;8.084;2022-12-18T08:05:45;21.57;;;8.97;;
20531;SDS011;10424;52.102;8.084;2022-12-18T08:08:14;19.20;;;7.87;;
20531;SDS011;10424;52.102;8.084;2022-12-18T08:10:42;17.47;;;7.23;;
20531;SDS011;10424;52.102;8.084;2022-12-18T08:13:09;22.07;;;8.13;;
20531;SDS011;10424;52.102;8.084;2022-12-18T08:15:36;20.03;;;8.27;;
20531;SDS011;10424;52.102;8.084;2022-12-18T08:18:03;21.37;;;8.10;;
20531;SDS011;10424;52.102;8.084;2022-12-18T08:20:31;16.47;;;7.70;;
20531;SDS011;10424;52.102;8.084;2022-12-18T08:22:58;19.47;;;8.17;;
20531;SDS011;10424;52.102;8.084;2022-12-18T08:25:27;15.97;;;7.67;;
20531;SDS011;10424;52.102;8.084;2022-12-18T08:27:54;19.20;;;8.33;;
20531;SDS011;10424;52.102;8.084;2022-12-18T08:30:22;17.23;;;8.07;;
20531;SDS011;10424;52.102;8.084;2022-12-18T08:32:50;16.50;;;7.80;;
20531;SDS011;10424;52.102;8.084;2022-12-18T08:35:19;14.37;;;7.40;;
20531;SDS011;10424;52.102;8.084;2022-12-18T08:37:46;14.83;;;7.23;;
20531;SDS011;10424;52.102;8.084;2022-12-18T08:40:14;17.80;;;7.60;;
20531;SDS011;10424;52.102;8.084;2022-12-18T08:42:42;14.17;;;6.00;;
20531;SDS011;10424;52.102;8.084;2022-12-18T08:45:27;17.03;;;6.80;;
20531;SDS011;10424;52.102;8.084;2022-12-18T08:47:54;15.57;;;6.23;;
20531;SDS011;10424;52.102;8.084;2022-12-18T08:50:22;13.37;;;6.50;;
20531;SDS011;10424;52.102;8.084;2022-12-18T08:52:49;11.30;;;5.80;;
20531;SDS011;10424;52.102;8.084;2022-12-18T08:55:16;12.00;;;6.10;;
20531;SDS011;10424;52.102;8.084;2022-12-18T08:57:47;12.03;;;6.50;;
20531;SDS011;10424;52.102;8.084;2022-12-18T09:00:15;10.23;;;5.90;;
20531;SDS011;10424;52.102;8.084;2022-12-18T09:02:42;10.03;;;5.37;;
20531;SDS011;10424;52.102;8.084;2022-12-18T09:05:10;11.10;;;5.73;;
20531;SDS011;10424;52.102;8.084;2022-12-18T09:07:37;12.90;;;6.20;;
20531;SDS011;10424;52.102;8.084;2022-12-18T09:10:05;10.67;;;5.63;;
20531;SDS011;10424;52.102;8.084;2022-12-18T09:12:32;11.87;;;6.33;;
20531;SDS011;10424;52.102;8.084;2022-12-18T09:15:01;10.17;;;5.73;;
20531;SDS011;10424;52.102;8.084;2022-12-18T09:17:28;14.80;;;6.57;;
20531;SDS011;10424;52.102;8.084;2022-12-18T09:19:55;14.70;;;6.87;;
20531;SDS011;10424;52.102;8.084;2022-12-18T09:22:23;12.70;;;6.80;;
20531;SDS011;10424;52.102;8.084;2022-12-18T09:24:50;12.47;;;6.13;;
20531;SDS011;10424;52.102;8.084;2022-12-18T09:27:17;13.53;;;6.57;;
20531;SDS011;10424;52.102;8.084;2022-12-18T09:29:45;11.80;;;6.40;;
20531;SDS011;10424;52.102;8.084;2022-12-18T09:32:13;11.90;;;6.50;;
20531;SDS011;10424;52.102;8.084;2022-12-18T09:34:42;11.47;;;6.03;;
20531;SDS011;10424;52.102;8.084;2022-12-18T09:37:09;9.93;;;5.83;;
20531;SDS011;10424;52.102;8.084;2022-12-18T09:39:37;12.10;;;6.53;;
20531;SDS011;10424;52.102;8.084;2022-12-18T09:42:05;11.17;;;5.80;;
20531;SDS011;10424;52.102;8.084;2022-12-18T09:44:33;10.40;;;5.90;;
20531;SDS011;10424;52.102;8.084;2022-12-18T09:47:04;8.67;;;5.50;;
20531;SDS011;10424;52.102;8.084;2022-12-18T09:49:35;11.23;;;6.37;;
20531;SDS011;10424;52.102;8.084;2022-12-18T09:52:04;12.57;;;6.93;;
20531;SDS011;10424;52.102;8.084;2022-12-18T09:54:36;11.77;;;6.60;;
20531;SDS011;10424;52.102;8.084;2022-12-18T09:57:05;14.15;;;7.28;;
20531;SDS011;10424;52.102;8.084;2022-12-18T09:59:34;10.77;;;5.97;;
20531;SDS011;10424;52.102;8.084;2022-12-18T10:02:11;12.75;;;6.63;;
20531;SDS011;10424;52.102;8.084;2022-12-18T10:04:40;11.82;;;6.68;;
20531;SDS011;10424;52.102;8.084;2022-12-18T10:07:09;11.25;;;6.57;;
20531;SDS011;10424;52.102;8.084;2022-12-18T10:09:39;11.80;;;6.50;;
20531;SDS011;10424;52.102;8.084;2022-12-18T10:12:08;10.05;;;6.20;;
20531;SDS011;10424;52.102;8.084;2022-12-18T10:14:39;12.27;;;6.82;;
20531;SDS011;10424;52.102;8.084;2022-12-18T10:17:11;9.85;;;6.25;;
20531;SDS011;10424;52.102;8.084;2022-12-18T10:19:42;10.57;;;6.55;;
20531;SDS011;10424;52.102;8.084;2022-12-18T10:22:18;10.80;;;6.50;;
20531;SDS011;10424;52.102;8.084;2022-12-18T10:24:48;12.20;;;7.10;;
20531;SDS011;10424;52.102;8.084;2022-12-18T10:27:21;11.57;;;6.75;;
20531;SDS011;10424;52.102;8.084;2022-12-18T10:29:49;11.18;;;6.97;;
20531;SDS011;10424;52.102;8.084;2022-12-18T10:32:17;11.50;;;6.97;;
20531;SDS011;10424;52.102;8.084;2022-12-18T10:34:47;11.15;;;6.53;;
20531;SDS011;10424;52.102;8.084;2022-12-18T10:37:15;10.73;;;6.75;;
20531;SDS011;10424;52.102;8.084;2022-12-18T10:39:43;12.50;;;7.07;;
20531;SDS011;10424;52.102;8.084;2022-12-18T10:42:14;11.63;;;6.85;;
20531;SDS011;10424;52.102;8.084;2022-12-18T10:44:43;13.50;;;7.22;;
20531;SDS011;10424;52.102;8.084;2022-12-18T10:47:11;13.23;;;6.75;;
20531;SDS011;10424;52.102;8.084;2022-12-18T10:49:40;12.73;;;7.43;;
20531;SDS011;10424;52.102;8.084;2022-12-18T10:52:14;10.60;;;6.65;;
20531;SDS011;10424;52.102;8.084;2022-12-18T10:54:45;10.75;;;6.28;;
20531;SDS011;10424;52.102;8.084;2022-12-18T10:57:14;14.57;;;7.28;;
20531;SDS011;10424;52.102;8.084;2022-12-18T10:59:49;12.53;;;7.30;;
20531;SDS011;10424;52.102;8.084;2022-12-18T11:02:24;14.17;;;7.10;;
20531;SDS011;10424;52.102;8.084;2022-12-18T11:04:52;12.33;;;6.93;;
20531;SDS011;10424;52.102;8.084;2022-12-18T11:07:21;12.57;;;7.10;;
20531;SDS011;10424;52.102;8.084;2022-12-18T11:09:59;12.57;;;7.10;;
20531;SDS011;10424;52.102;8.084;2022-12-18T11:12:28;15.07;;;7.63;;
20531;SDS011;10424;52.102;8.084;2022-12-18T11:14:55;12.83;;;6.90;;
20531;SDS011;10424;52.102;8.084;2022-12-18T11:17:25;14.63;;;7.03;;
20531;SDS011;10424;52.102;8.084;2022-12-18T11:19:55;13.40;;;6.83;;
20531;SDS011;10424;52.102;8.084;2022-12-18T11:22:24;12.67;;;6.77;;
20531;SDS011;10424;52.102;8.084;2022-12-18T11:24:53;11.43;;;6.63;;
20531;SDS011;10424;52.102;8.084;2022-12-18T11:27:21;14.73;;;7.07;;
20531;SDS011;10424;52.102;8.084;2022-12-18T11:29:49;14.50;;;7.07;;
20531;SDS011;10424;52.102;8.084;2022-12-18T11:32:33;12.07;;;6.80;;
20531;SDS011;10424;52.102;8.084;2022-12-18T11:35:03;14.90;;;6.37;;
20531;SDS011;10424;52.102;8.084;2022-12-18T11:37:32;11.83;;;6.80;;
20531;SDS011;10424;52.102;8.084;2022-12-18T11:40:01;11.80;;;6.37;;
20531;SDS011;10424;52.102;8.084;2022-12-18T11:42:32;13.93;;;6.67;;
20531;SDS011;10424;52.102;8.084;2022-12-18T11:45:03;12.63;;;7.00;;
20531;SDS011;10424;52.102;8.084;2022-12-18T11:47:37;11.40;;;6.63;;
20531;SDS011;10424;52.102;8.084;2022-12-18T11:50:12;11.77;;;6.00;;
20531;SDS011;10424;52.102;8.084;2022-12-18T11:52:42;11.20;;;6.27;;
20531;SDS011;10424;52.102;8.084;2022-12-18T11:55:10;14.27;;;6.63;;
20531;SDS011;10424;52.102;8.084;2022-12-18T11:57:41;13.90;;;7.40;;
20531;SDS011;10424;52.102;8.084;2022-12-18T12:00:14;12.53;;;6.53;;
20531;SDS011;10424;52.102;8.084;2022-12-18T12:02:54;12.37;;;6.83;;
20531;SDS011;10424;52.102;8.084;2022-12-18T12:05:33;12.03;;;6.40;;
20531;SDS011;10424;52.102;8.084;2022-12-18T12:08:06;12.83;;;6.83;;
20531;SDS011;10424;52.102;8.084;2022-12-18T12:10:41;12.37;;;6.70;;
20531;SDS011;10424;52.102;8.084;2022-12-18T12:13:20;12.40;;;6.80;;
20531;SDS011;10424;52.102;8.084;2022-12-18T12:15:53;12.97;;;6.30;;
20531;SDS011;10424;52.102;8.084;2022-12-18T12:18:27;12.37;;;6.40;;
20531;SDS011;10424;52.102;8.084;2022-12-18T12:20:58;12.07;;;6.50;;
20531;SDS011;10424;52.102;8.084;2022-12-18T12:23:33;10.47;;;5.83;;
20531;SDS011;10424;52.102;8.084;2022-12-18T12:26:04;12.70;;;6.60;;
20531;SDS011;10424;52.102;8.084;2022-12-18T12:28:36;13.40;;;6.77;;
20531;SDS011;10424;52.102;8.084;2022-12-18T12:31:11;12.77;;;6.43;;
20531;SDS011;10424;52.102;8.084;2022-12-18T12:33:42;12.40;;;6.30;;
20531;SDS011;10424;52.102;8.084;2022-12-18T12:36:25;13.33;;;6.50;;
20531;SDS011;10424;52.102;8.084;2022-12-18T12:38:58;15.67;;;7.30;;
20531;SDS011;10424;52.102;8.084;2022-12-18T12:41:27;11.17;;;5.90;;
20531;SDS011;10424;52.102;8.084;2022-12-18T12:44:16;11.70;;;6.20;;
20531;SDS011;10424;52.102;8.084;2022-12-18T12:46:44;11.50;;;6.07;;
20531;SDS011;10424;52.102;8.084;2022-12-18T12:49:13;13.30;;;6.90;;
20531;SDS011;10424;52.102;8.084;2022-12-18T12:51:41;12.57;;;6.40;;
20531;SDS011;10424;52.102;8.084;2022-12-18T12:54:14;12.90;;;6.13;;
20531;SDS011;10424;52.102;8.084;2022-12-18T12:56:43;11.40;;;5.70;;
20531;SDS011;10424;52.102;8.084;2022-12-18T12:59:13;13.03;;;6.60;;
20531;SDS011;10424;52.102;8.084;2022-12-18T13:01:47;14.70;;;6.93;;
20531;SDS011;10424;52.102;8.084;2022-12-18T13:04:19;11.80;;;6.60;;
20531;SDS011;10424;52.102;8.084;2022-12-18T13:06:50;13.57;;;6.03;;
20531;SDS011;10424;52.102;8.084;2022-12-18T13:09:21;12.13;;;6.20;;
20531;SDS011;10424;52.102;8.084;2022-12-18T13:11:48;14.70;;;7.00;;
20531;SDS011;10424;52.102;8.084;2022-12-18T13:14:34;11.83;;;6.43;;
20531;SDS011;10424;52.102;8.084;2022-12-18T13:19:50;12.57;;;6.90;;
20531;SDS011;10424;52.102;8.084;2022-12-18T13:22:21;11.53;;;6.37;;
20531;SDS011;10424;52.102;8.084;2022-12-18T13:24:51;13.57;;;7.07;;
20531;SDS011;10424;52.102;8.084;2022-12-18T13:35:52;12.40;;;6.50;;
20531;SDS011;10424;52.102;8.084;2022-12-18T13:38:21;14.37;;;6.13;;
20531;SDS011;10424;52.102;8.084;2022-12-18T13:40:54;14.87;;;6.60;;
20531;SDS011;10424;52.102;8.084;2022-12-18T13:43:23;15.27;;;6.43;;
20531;SDS011;10424;52.102;8.084;2022-12-18T13:45:59;12.57;;;6.27;;
20531;SDS011;10424;52.102;8.084;2022-12-18T13:48:27;12.93;;;6.37;;
20531;SDS011;10424;52.102;8.084;2022-12-18T13:50:57;11.93;;;6.53;;
20531;SDS011;10424;52.102;8.084;2022-12-18T13:53:26;12.50;;;6.47;;
20531;SDS011;10424;52.102;8.084;2022-12-18T13:55:55;13.57;;;7.37;;
20531;SDS011;10424;52.102;8.084;2022-12-18T13:58:23;12.53;;;5.67;;
20531;SDS011;10424;52.102;8.084;2022-12-18T14:00:50;12.40;;;5.63;;
20531;SDS011;10424;52.102;8.084;2022-12-18T14:03:19;11.57;;;5.20;;
20531;SDS011;10424;52.102;8.084;2022-12-18T14:05:46;11.07;;;5.50;;
20531;SDS011;10424;52.102;8.084;2022-12-18T14:08:19;9.70;;;5.20;;
20531;SDS011;10424;52.102;8.084;2022-12-18T14:10:57;9.97;;;5.10;;
20531;SDS011;10424;52.102;8.084;2022-12-18T14:13:26;10.83;;;5.60;;
20531;SDS011;10424;52.102;8.084;2022-12-18T14:15:54;10.87;;;5.13;;
20531;SDS011;10424;52.102;8.084;2022-12-18T14:18:23;8.90;;;5.10;;
20531;SDS011;10424;52.102;8.084;2022-12-18T14:20:52;11.03;;;5.20;;
20531;SDS011;10424;52.102;8.084;2022-12-18T14:23:26;11.37;;;5.80;;
20531;SDS011;10424;52.102;8.084;2022-12-18T14:25:53;10.87;;;5.23;;
20531;SDS011;10424;52.102;8.084;2022-12-18T14:28:22;11.07;;;5.80;;
20531;SDS011;10424;52.102;8.084;2022-12-18T14:30:52;9.70;;;5.33;;
20531;SDS011;10424;52.102;8.084;2022-12-18T14:33:22;10.77;;;5.17;;
20531;SDS011;10424;52.102;8.084;2022-12-18T14:35:53;10.80;;;5.50;;
20531;SDS011;10424;52.102;8.084;2022-12-18T14:38:23;14.37;;;5.80;;
20531;SDS011;10424;52.102;8.084;2022-12-18T14:40:57;10.20;;;5.53;;
20531;SDS011;10424;52.102;8.084;2022-12-18T14:43:26;10.80;;;5.20;;
20531;SDS011;10424;52.102;8.084;2022-12-18T14:45:54;9.77;;;5.47;;
20531;SDS011;10424;52.102;8.084;2022-12-18T14:48:23;10.77;;;5.63;;
20531;SDS011;10424;52.102;8.084;2022-12-18T14:50:57;13.07;;;5.80;;
20531;SDS011;10424;52.102;8.084;2022-12-18T14:53:28;10.57;;;4.90;;
20531;SDS011;10424;52.102;8.084;2022-12-18T14:55:56;8.00;;;4.50;;
20531;SDS011;10424;52.102;8.084;2022-12-18T14:58:24;10.97;;;5.33;;
20531;SDS011;10424;52.102;8.084;2022-12-18T15:00:52;10.30;;;5.00;;